createdAt,value
2019-03-20T00:00:07.175Z,1.60
2019-03-20T00:02:36.450Z,1.50
2019-03-20T00:05:06.347Z,1.50
2019-03-20T00:07:35.573Z,1.50
2019-03-20T00:10:05.429Z,1.50
2019-03-20T00:12:34.648Z,1.40
2019-03-20T00:15:04.670Z,1.30
2019-03-20T00:17:33.995Z,1.30
2019-03-20T00:20:03.323Z,1.30
2019-03-20T00:22:32.659Z,1.20
2019-03-20T00:25:02.371Z,1.30
2019-03-20T00:27:31.596Z,1.30
2019-03-20T00:30:01.429Z,1.30
2019-03-20T00:32:30.729Z,1.30
2019-03-20T00:35:01.151Z,1.30
2019-03-20T00:37:30.797Z,1.40
2019-03-20T00:40:00.076Z,1.40
2019-03-20T00:42:29.321Z,1.40
2019-03-20T00:44:58.559Z,1.40
2019-03-20T00:47:27.876Z,1.30
2019-03-20T00:49:58.142Z,1.30
2019-03-20T00:52:27.641Z,1.30
2019-03-20T00:54:56.986Z,1.30
2019-03-20T00:57:26.219Z,1.20
2019-03-20T00:59:55.540Z,1.20
2019-03-20T01:02:25.213Z,1.10
2019-03-20T01:04:54.555Z,1.10
2019-03-20T01:07:24.224Z,0.90
2019-03-20T01:09:53.526Z,0.80
2019-03-20T01:12:22.879Z,0.70
2019-03-20T01:14:52.113Z,0.70
2019-03-20T01:17:21.421Z,0.80
2019-03-20T01:19:51.335Z,0.80
2019-03-20T01:22:20.579Z,0.80
2019-03-20T01:24:49.873Z,0.90
2019-03-20T01:27:19.137Z,0.90
2019-03-20T01:29:48.379Z,0.90
2019-03-20T01:32:17.696Z,0.90
2019-03-20T01:34:47.049Z,0.90
2019-03-20T01:37:16.290Z,0.90
2019-03-20T01:39:45.538Z,0.80
2019-03-20T01:42:14.916Z,0.80
2019-03-20T01:44:44.155Z,0.80
2019-03-20T01:47:13.458Z,0.80
2019-03-20T01:49:42.821Z,0.70
2019-03-20T01:52:12.368Z,0.70
2019-03-20T01:54:41.752Z,0.60
2019-03-20T01:57:11.106Z,0.60
2019-03-20T01:59:40.843Z,0.60
2019-03-20T02:02:10.074Z,0.50
2019-03-20T02:04:39.439Z,0.50
2019-03-20T02:07:08.750Z,0.60
2019-03-20T02:09:38.301Z,0.60
2019-03-20T02:12:07.582Z,0.60
2019-03-20T02:14:36.903Z,0.60
2019-03-20T02:17:06.130Z,0.60
2019-03-20T02:19:35.362Z,0.60
2019-03-20T02:22:04.589Z,0.50
2019-03-20T02:24:33.847Z,0.40
2019-03-20T02:27:03.167Z,0.40
2019-03-20T02:29:33.423Z,0.40
2019-03-20T02:32:02.694Z,0.50
2019-03-20T02:34:32.012Z,0.50
2019-03-20T02:37:01.322Z,0.50
2019-03-20T02:39:31.052Z,0.50
2019-03-20T02:42:00.364Z,0.50
2019-03-20T02:44:29.608Z,0.50
2019-03-20T02:46:58.905Z,0.40
2019-03-20T02:49:28.220Z,0.40
2019-03-20T02:51:57.540Z,0.40
2019-03-20T02:54:26.836Z,0.20
2019-03-20T02:56:56.128Z,0.30
2019-03-20T02:59:25.469Z,0.20
2019-03-20T03:01:54.753Z,0.30
2019-03-20T03:04:24.009Z,0.30
2019-03-20T03:06:53.934Z,0.40
2019-03-20T03:09:23.195Z,0.40
2019-03-20T03:11:52.491Z,0.40
2019-03-20T03:14:21.812Z,0.40
2019-03-20T03:16:51.086Z,0.30
2019-03-20T03:19:20.401Z,0.30
2019-03-20T03:21:49.725Z,0.20
2019-03-20T03:24:19.037Z,0.20
2019-03-20T03:26:48.355Z,0.20
2019-03-20T03:29:17.683Z,0.20
2019-03-20T03:31:47.481Z,0.20
2019-03-20T03:34:16.791Z,0.20
2019-03-20T03:36:46.023Z,0.10
2019-03-20T03:39:15.246Z,0.10
2019-03-20T03:41:44.927Z,0.10
2019-03-20T03:44:14.250Z,0.10
2019-03-20T03:46:43.481Z,0.10
2019-03-20T03:49:12.753Z,0.10
2019-03-20T03:51:41.995Z,0.10
2019-03-20T03:54:11.308Z,0.10
2019-03-20T03:56:40.556Z,0.10
2019-03-20T03:59:12.333Z,0.10
2019-03-20T04:01:41.592Z,0.10
2019-03-20T04:04:10.914Z,0.10
2019-03-20T04:06:40.169Z,0.00
2019-03-20T04:09:09.444Z,0.00
2019-03-20T04:11:38.768Z,0.00
2019-03-20T04:14:07.997Z,0.00
2019-03-20T04:16:37.315Z,-0.10
2019-03-20T04:19:07.368Z,-0.10
2019-03-20T04:21:37.014Z,-0.10
2019-03-20T04:24:06.256Z,-0.10
2019-03-20T04:26:35.966Z,-0.10
2019-03-20T04:29:05.241Z,-0.10
2019-03-20T04:31:34.558Z,-0.10
2019-03-20T04:34:03.910Z,-0.20
2019-03-20T04:36:33.218Z,-0.20
2019-03-20T04:39:02.539Z,-0.20
2019-03-20T04:41:31.804Z,-0.10
2019-03-20T04:44:01.068Z,-0.20
2019-03-20T04:46:30.419Z,-0.20
2019-03-20T04:48:59.749Z,-0.20
2019-03-20T04:51:29.063Z,-0.20
2019-03-20T04:53:58.384Z,-0.10
2019-03-20T04:56:27.715Z,-0.10
2019-03-20T04:58:56.957Z,-0.10
2019-03-20T05:01:26.202Z,-0.10
2019-03-20T05:03:55.578Z,0.00
2019-03-20T05:06:24.819Z,0.00
2019-03-20T05:08:54.862Z,0.00
2019-03-20T05:11:24.389Z,0.10
2019-03-20T05:13:53.691Z,0.10
2019-03-20T05:16:22.935Z,0.20
2019-03-20T05:18:52.184Z,0.30
2019-03-20T05:21:21.405Z,0.40
2019-03-20T05:23:50.602Z,0.40
2019-03-20T05:26:19.831Z,0.40
2019-03-20T05:28:49.155Z,0.50
2019-03-20T05:31:18.457Z,0.40
2019-03-20T05:33:47.786Z,0.40
2019-03-20T05:36:17.108Z,0.30
2019-03-20T05:38:46.370Z,0.30
2019-03-20T05:41:16.219Z,0.30
2019-03-20T05:43:45.450Z,0.30
2019-03-20T05:46:15.240Z,0.40
2019-03-20T05:48:44.475Z,0.50
2019-03-20T05:51:13.726Z,0.60
2019-03-20T05:53:43.051Z,0.70
2019-03-20T05:56:12.362Z,0.70
2019-03-20T05:58:41.650Z,0.80
2019-03-20T06:01:10.959Z,1.00
2019-03-20T06:03:40.439Z,1.10
2019-03-20T06:06:09.829Z,1.30
2019-03-20T06:08:39.610Z,1.40
2019-03-20T06:11:08.895Z,1.50
2019-03-20T06:13:38.266Z,1.60
2019-03-20T06:16:07.585Z,1.80
2019-03-20T06:18:36.817Z,1.90
2019-03-20T06:21:06.159Z,2.00
2019-03-20T06:23:35.480Z,2.10
2019-03-20T06:26:04.796Z,2.20
2019-03-20T06:28:34.030Z,2.30
2019-03-20T06:31:03.779Z,2.50
2019-03-20T06:33:33.896Z,2.50
2019-03-20T06:36:03.121Z,2.60
2019-03-20T06:38:32.362Z,2.80
2019-03-20T06:41:01.710Z,2.90
2019-03-20T06:43:31.423Z,3.00
2019-03-20T06:46:00.816Z,3.20
2019-03-20T06:48:30.174Z,3.30
2019-03-20T06:50:59.498Z,3.50
2019-03-20T06:53:28.783Z,3.60
2019-03-20T06:55:58.048Z,3.70
2019-03-20T06:58:27.279Z,3.90
2019-03-20T07:01:07.547Z,4.00
2019-03-20T07:04:03.631Z,4.20
2019-03-20T07:07:21.562Z,4.40
2019-03-20T07:10:10.986Z,4.50
2019-03-20T07:12:40.236Z,4.70
2019-03-20T07:15:09.593Z,4.80
2019-03-20T07:17:38.891Z,4.90
2019-03-20T07:20:08.686Z,5.00
2019-03-20T07:22:37.981Z,5.20
2019-03-20T07:25:07.863Z,5.20
2019-03-20T07:27:37.069Z,5.30
2019-03-20T07:30:07.109Z,5.40
2019-03-20T07:32:36.635Z,5.50
2019-03-20T07:35:06.029Z,5.70
2019-03-20T07:37:35.425Z,5.80
2019-03-20T07:40:06.176Z,5.90
2019-03-20T07:42:35.438Z,6.10
2019-03-20T07:45:06.035Z,6.20
2019-03-20T07:47:35.383Z,6.30
2019-03-20T07:50:05.598Z,6.40
2019-03-20T07:52:35.198Z,6.50
2019-03-20T07:55:04.688Z,6.60
2019-03-20T07:57:34.062Z,6.80
2019-03-20T08:00:03.413Z,6.90
2019-03-20T08:02:32.752Z,7.00
2019-03-20T08:05:02.081Z,7.20
2019-03-20T08:07:32.174Z,7.30
2019-03-20T08:10:01.592Z,7.40
2019-03-20T08:12:31.013Z,7.40
2019-03-20T08:15:00.358Z,7.50
2019-03-20T08:17:29.655Z,7.70
2019-03-20T08:19:58.919Z,7.90
2019-03-20T08:22:28.276Z,8.00
2019-03-20T08:24:57.522Z,8.20
2019-03-20T08:27:26.836Z,8.30
2019-03-20T08:29:57.063Z,8.30
2019-03-20T08:32:26.303Z,8.30
2019-03-20T08:34:55.544Z,8.40
2019-03-20T08:37:24.799Z,8.50
2019-03-20T08:39:54.399Z,8.60
2019-03-20T08:42:23.647Z,8.50
2019-03-20T08:44:52.967Z,8.50
2019-03-20T08:47:22.399Z,8.70
2019-03-20T08:49:51.655Z,9.00
2019-03-20T08:52:20.953Z,9.20
2019-03-20T08:54:50.282Z,9.40
2019-03-20T08:57:19.615Z,9.30
2019-03-20T08:59:48.838Z,9.00
2019-03-20T09:02:18.149Z,8.90
2019-03-20T09:04:47.489Z,9.00
2019-03-20T09:07:16.724Z,9.30
2019-03-20T09:09:45.966Z,9.10
2019-03-20T09:12:15.197Z,9.20
2019-03-20T09:14:45.354Z,9.10
2019-03-20T09:17:14.664Z,9.10
2019-03-20T09:19:44.013Z,9.10
2019-03-20T09:22:13.307Z,9.30
2019-03-20T09:24:42.900Z,9.00
2019-03-20T09:27:12.275Z,8.90
2019-03-20T09:29:41.496Z,8.90
2019-03-20T09:32:11.181Z,9.20
2019-03-20T09:34:41.068Z,9.20
2019-03-20T09:37:10.247Z,9.10
2019-03-20T09:39:39.470Z,9.20
2019-03-20T09:42:08.749Z,9.20
2019-03-20T09:44:37.986Z,9.10
2019-03-20T09:47:07.324Z,9.30
2019-03-20T09:49:36.671Z,9.70
2019-03-20T09:52:06.523Z,9.90
2019-03-20T09:54:35.757Z,9.90
2019-03-20T09:57:05.187Z,10.20
2019-03-20T09:59:34.429Z,10.00
2019-03-20T10:02:03.662Z,9.60
2019-03-20T10:04:33.001Z,9.50
2019-03-20T10:07:02.255Z,9.50
2019-03-20T10:09:31.564Z,9.40
2019-03-20T10:12:00.835Z,9.30
2019-03-20T10:14:30.064Z,9.50
2019-03-20T10:16:59.303Z,9.60
2019-03-20T10:19:28.653Z,9.50
2019-03-20T10:21:57.942Z,9.30
2019-03-20T10:24:27.204Z,9.20
2019-03-20T10:26:56.555Z,9.00
2019-03-20T10:29:25.854Z,8.90
2019-03-20T10:31:55.086Z,8.80
2019-03-20T10:34:24.440Z,8.80
2019-03-20T10:36:53.761Z,9.00
2019-03-20T10:39:23.078Z,9.10
2019-03-20T10:41:52.402Z,9.20
2019-03-20T10:44:21.754Z,9.20
2019-03-20T10:46:51.064Z,9.20
2019-03-20T10:49:20.792Z,9.00
2019-03-20T10:51:50.103Z,8.90
2019-03-20T10:54:19.760Z,9.10
2019-03-20T10:56:49.011Z,9.50
2019-03-20T10:59:18.321Z,9.70
2019-03-20T11:01:47.913Z,9.60
2019-03-20T11:04:17.148Z,9.60
2019-03-20T11:06:46.472Z,9.50
2019-03-20T11:09:18.436Z,9.40
2019-03-20T11:11:46.704Z,9.40
2019-03-20T11:14:16.282Z,9.40
2019-03-20T11:16:45.636Z,9.40
2019-03-20T11:19:14.971Z,9.30
2019-03-20T11:21:44.268Z,9.20
2019-03-20T11:24:15.296Z,9.10
2019-03-20T11:26:44.614Z,9.10
2019-03-20T11:29:13.928Z,9.20
2019-03-20T11:31:43.312Z,9.40
2019-03-20T11:34:12.632Z,9.80
2019-03-20T11:36:41.866Z,9.90
2019-03-20T11:39:11.296Z,9.80
2019-03-20T11:41:40.547Z,9.60
2019-03-20T11:44:09.863Z,9.40
2019-03-20T11:46:39.100Z,9.20
2019-03-20T11:49:10.175Z,9.10
2019-03-20T11:51:39.406Z,9.00
2019-03-20T11:54:08.731Z,9.20
2019-03-20T11:56:37.962Z,9.50
2019-03-20T11:59:07.287Z,9.80
2019-03-20T12:01:36.562Z,9.80
2019-03-20T12:04:05.926Z,9.50
2019-03-20T12:06:35.237Z,9.40
2019-03-20T12:09:07.758Z,9.40
2019-03-20T12:11:45.493Z,9.40
2019-03-20T12:14:07.878Z,9.30
2019-03-20T12:16:37.141Z,9.30
2019-03-20T12:19:06.362Z,9.20
2019-03-20T12:21:35.598Z,9.20
2019-03-20T12:24:04.897Z,9.10
2019-03-20T12:26:34.208Z,9.10
2019-03-20T12:29:03.559Z,9.00
2019-03-20T12:31:33.135Z,9.00
2019-03-20T12:34:02.409Z,9.20
2019-03-20T12:36:31.703Z,9.60
2019-03-20T12:39:01.015Z,9.90
2019-03-20T12:41:30.268Z,10.00
2019-03-20T12:43:59.530Z,10.10
2019-03-20T12:46:40.918Z,10.20
2019-03-20T12:49:00.126Z,10.20
2019-03-20T12:51:29.478Z,10.10
2019-03-20T12:53:58.702Z,10.00
2019-03-20T12:56:28.026Z,9.90
2019-03-20T12:58:57.270Z,9.80
2019-03-20T13:01:26.672Z,10.00
2019-03-20T13:03:55.910Z,10.20
2019-03-20T13:06:25.150Z,10.40
2019-03-20T13:08:54.396Z,10.60
2019-03-20T13:11:23.754Z,10.70
2019-03-20T13:13:53.013Z,10.40
2019-03-20T13:16:22.751Z,10.30
2019-03-20T13:18:52.348Z,10.40
2019-03-20T13:21:21.652Z,10.80
2019-03-20T13:23:51.085Z,11.40
2019-03-20T13:26:20.449Z,11.10
2019-03-20T13:28:49.828Z,10.70
2019-03-20T13:31:20.865Z,10.50
2019-03-20T13:33:50.169Z,10.40
2019-03-20T13:36:19.474Z,10.20
2019-03-20T13:38:48.732Z,9.90
2019-03-20T13:41:18.094Z,9.70
2019-03-20T13:43:47.425Z,9.60
2019-03-20T13:46:16.662Z,9.60
2019-03-20T13:48:46.046Z,9.60
2019-03-20T13:51:15.303Z,9.60
2019-03-20T13:53:44.646Z,9.70
2019-03-20T13:56:14.010Z,9.70
2019-03-20T13:58:43.310Z,9.70
2019-03-20T14:01:12.635Z,9.70
2019-03-20T14:03:41.984Z,9.70
2019-03-20T14:06:11.309Z,9.70
2019-03-20T14:08:40.599Z,9.60
2019-03-20T14:11:10.031Z,9.60
2019-03-20T14:13:39.254Z,9.40
2019-03-20T14:16:08.560Z,9.50
2019-03-20T14:18:37.941Z,10.00
2019-03-20T14:21:07.265Z,10.20
2019-03-20T14:23:36.579Z,10.40
2019-03-20T14:26:05.854Z,10.70
2019-03-20T14:28:35.115Z,10.80
2019-03-20T14:31:04.643Z,10.70
2019-03-20T14:33:33.997Z,10.40
2019-03-20T14:36:03.443Z,10.20
2019-03-20T14:38:32.696Z,10.00
2019-03-20T14:41:01.991Z,9.90
2019-03-20T14:43:31.327Z,9.80
2019-03-20T14:46:01.413Z,9.70
2019-03-20T14:48:30.674Z,9.50
2019-03-20T14:50:59.991Z,9.70
2019-03-20T14:53:29.408Z,10.00
2019-03-20T14:55:58.658Z,10.30
2019-03-20T14:58:27.985Z,10.60
2019-03-20T15:00:57.251Z,11.00
2019-03-20T15:03:26.594Z,11.20
2019-03-20T15:05:55.959Z,11.40
2019-03-20T15:08:25.767Z,11.60
2019-03-20T15:10:57.013Z,11.60
2019-03-20T15:13:26.271Z,11.50
2019-03-20T15:16:05.866Z,11.50
2019-03-20T15:18:35.261Z,11.60
2019-03-20T15:21:04.589Z,11.70
2019-03-20T15:23:33.929Z,11.60
2019-03-20T15:26:03.308Z,11.50
2019-03-20T15:28:33.239Z,11.10
2019-03-20T15:31:02.486Z,10.90
2019-03-20T15:33:31.915Z,10.60
2019-03-20T15:36:01.247Z,10.50
2019-03-20T15:38:30.582Z,10.40
2019-03-20T15:40:59.905Z,10.50
2019-03-20T15:43:29.242Z,10.60
2019-03-20T15:45:58.603Z,10.70
2019-03-20T15:48:28.666Z,10.90
2019-03-20T15:50:57.928Z,11.00
2019-03-20T15:53:27.202Z,10.90
2019-03-20T15:55:56.450Z,10.80
2019-03-20T15:58:25.804Z,10.80
2019-03-20T16:00:55.051Z,10.60
2019-03-20T16:03:24.496Z,10.70
2019-03-20T16:05:53.861Z,10.70
2019-03-20T16:08:23.452Z,10.70
2019-03-20T16:10:52.716Z,10.70
2019-03-20T16:13:21.981Z,10.60
2019-03-20T16:15:51.293Z,10.40
2019-03-20T16:18:20.647Z,10.30
2019-03-20T16:20:49.982Z,10.20
2019-03-20T16:23:19.295Z,10.10
2019-03-20T16:25:48.742Z,9.90
2019-03-20T16:28:18.007Z,9.80
2019-03-20T16:30:47.369Z,9.70
2019-03-20T16:33:16.611Z,9.60
2019-03-20T16:35:45.853Z,9.50
2019-03-20T16:38:15.207Z,9.40
2019-03-20T16:40:44.578Z,9.30
2019-03-20T16:43:13.909Z,9.20
2019-03-20T16:45:43.347Z,9.00
2019-03-20T16:48:12.594Z,8.90
2019-03-20T16:50:41.810Z,8.70
2019-03-20T16:53:11.674Z,8.60
2019-03-20T16:55:41.046Z,8.50
2019-03-20T16:58:10.364Z,8.40
2019-03-20T17:00:39.689Z,8.20
2019-03-20T17:03:09.009Z,8.00
2019-03-20T17:05:38.357Z,7.90
2019-03-20T17:08:07.628Z,7.80
2019-03-20T17:10:38.425Z,7.70
2019-03-20T17:13:07.768Z,7.60
2019-03-20T17:15:37.210Z,7.50
2019-03-20T17:18:06.757Z,7.30
2019-03-20T17:20:36.119Z,7.20
2019-03-20T17:23:07.677Z,7.10
2019-03-20T17:25:37.381Z,7.00
2019-03-20T17:28:06.826Z,7.00
2019-03-20T17:30:37.532Z,6.90
2019-03-20T17:33:07.049Z,6.90
2019-03-20T17:35:36.328Z,6.70
2019-03-20T17:38:05.721Z,6.60
2019-03-20T17:40:34.954Z,6.60
2019-03-20T17:43:05.727Z,6.40
2019-03-20T17:45:36.064Z,6.40
2019-03-20T17:48:05.679Z,6.20
2019-03-20T17:50:35.029Z,6.10
2019-03-20T17:53:04.694Z,5.90
2019-03-20T17:55:34.514Z,5.90
2019-03-20T17:58:03.983Z,5.80
2019-03-20T18:00:36.564Z,5.80
2019-03-20T18:03:06.491Z,5.80
2019-03-20T18:05:35.912Z,5.70
2019-03-20T18:08:05.887Z,5.60
2019-03-20T18:10:35.811Z,5.50
2019-03-20T18:13:05.642Z,5.30
2019-03-20T18:15:35.173Z,5.20
2019-03-20T18:18:04.828Z,5.10
2019-03-20T18:20:34.277Z,5.10
2019-03-20T18:26:35.321Z,5.00
2019-03-20T18:29:29.331Z,5.00
2019-03-20T18:31:58.667Z,4.90
2019-03-20T18:34:28.035Z,4.80
2019-03-20T18:36:59.290Z,4.70
2019-03-20T18:39:28.295Z,4.60
2019-03-20T18:41:58.147Z,4.50
2019-03-20T18:44:27.458Z,4.50
2019-03-20T18:46:56.698Z,4.50
2019-03-20T18:49:26.068Z,4.50
2019-03-20T18:51:55.407Z,4.40
2019-03-20T18:54:24.740Z,4.40
2019-03-20T18:56:54.481Z,4.40
2019-03-20T18:59:23.860Z,4.40
2019-03-20T19:01:53.159Z,4.40
2019-03-20T19:04:22.494Z,4.50
2019-03-20T19:06:51.758Z,4.50
2019-03-20T19:09:21.110Z,4.50
2019-03-20T19:11:50.457Z,4.40
2019-03-20T19:14:20.405Z,4.40
2019-03-20T19:16:49.738Z,4.30
2019-03-20T19:19:18.985Z,4.30
2019-03-20T19:21:48.321Z,4.30
2019-03-20T19:24:17.577Z,4.20
2019-03-20T19:26:46.768Z,4.10
2019-03-20T19:29:16.109Z,4.10
2019-03-20T19:31:45.431Z,4.00
2019-03-20T19:34:14.682Z,4.00
2019-03-20T19:36:43.952Z,4.10
2019-03-20T19:39:13.294Z,4.00
2019-03-20T19:41:42.619Z,4.10
2019-03-20T19:44:14.450Z,4.10
2019-03-20T19:46:43.788Z,4.10
2019-03-20T19:49:13.051Z,4.00
2019-03-20T19:51:42.424Z,3.90
2019-03-20T19:54:12.067Z,3.90
2019-03-20T19:56:41.393Z,3.80
2019-03-20T19:59:10.750Z,3.80
2019-03-20T20:01:39.994Z,3.80
2019-03-20T20:04:09.310Z,3.80
2019-03-20T20:06:38.574Z,3.80
2019-03-20T20:09:08.481Z,3.70
2019-03-20T20:11:38.268Z,3.70
2019-03-20T20:14:07.722Z,3.70
2019-03-20T20:16:37.028Z,3.70
2019-03-20T20:19:06.375Z,3.60
2019-03-20T20:21:35.715Z,3.50
2019-03-20T20:24:05.957Z,3.50
2019-03-20T20:26:35.292Z,3.60
2019-03-20T20:29:04.618Z,3.60
2019-03-20T20:31:33.947Z,3.60
2019-03-20T20:34:03.312Z,3.70
2019-03-20T20:36:34.195Z,3.70
2019-03-20T20:39:03.659Z,3.70
2019-03-20T20:41:33.017Z,3.80
2019-03-20T20:44:02.423Z,3.80
2019-03-20T20:46:31.747Z,3.80
2019-03-20T20:49:01.107Z,3.70
2019-03-20T20:51:30.867Z,3.60
2019-03-20T20:54:00.152Z,3.60
2019-03-20T20:56:29.509Z,3.50
2019-03-20T20:58:58.851Z,3.40
2019-03-20T21:01:30.108Z,3.40
2019-03-20T21:03:59.203Z,3.40
2019-03-20T21:06:28.524Z,3.40
2019-03-20T21:08:57.822Z,3.40
2019-03-20T21:11:27.165Z,3.40
2019-03-20T21:13:56.933Z,3.50
2019-03-20T21:16:26.746Z,3.50
2019-03-20T21:19:33.233Z,3.50
2019-03-20T21:22:44.828Z,3.60
2019-03-20T21:25:19.321Z,3.70
2019-03-20T21:28:29.380Z,3.80
2019-03-20T21:31:04.594Z,3.90
2019-03-20T21:34:27.096Z,3.90
2019-03-20T21:37:25.871Z,4.00
2019-03-20T21:39:56.388Z,4.10
2019-03-20T21:43:07.360Z,4.20
2019-03-20T21:46:18.010Z,4.30
2019-03-20T21:48:47.796Z,4.40
2019-03-20T21:51:19.341Z,4.50
2019-03-20T21:54:34.473Z,4.50
2019-03-20T21:57:31.344Z,4.60
2019-03-20T22:00:50.415Z,4.70
2019-03-20T22:03:20.349Z,4.70
2019-03-20T22:06:32.393Z,4.80
2019-03-20T22:09:08.400Z,4.80
2019-03-20T22:12:12.674Z,4.90
2019-03-20T22:14:44.051Z,4.90
2019-03-20T22:18:12.597Z,5.00
2019-03-20T22:21:01.982Z,5.10
2019-03-20T22:24:15.381Z,5.10
2019-03-20T22:27:31.603Z,5.10
2019-03-20T22:30:01.470Z,5.20
2019-03-20T22:33:00.990Z,5.20
2019-03-20T22:35:49.359Z,5.30
2019-03-20T22:38:46.672Z,5.30
2019-03-20T22:41:50.890Z,5.30
2019-03-20T22:44:22.045Z,5.30
2019-03-20T22:47:34.618Z,5.30
2019-03-20T22:50:40.846Z,5.40
2019-03-20T22:53:46.040Z,5.30
2019-03-20T22:57:08.329Z,5.30
2019-03-20T22:59:38.173Z,5.30
2019-03-20T23:02:38.959Z,5.30
2019-03-20T23:05:09.835Z,5.30
2019-03-20T23:07:39.782Z,5.20
2019-03-20T23:10:12.335Z,5.20
2019-03-20T23:12:42.161Z,5.20
2019-03-20T23:15:14.581Z,5.20
2019-03-20T23:17:44.431Z,5.20
2019-03-20T23:20:16.621Z,5.20
2019-03-20T23:22:48.436Z,5.30
2019-03-20T23:25:18.294Z,5.30
2019-03-20T23:27:48.123Z,5.30
2019-03-20T23:30:21.088Z,5.40
2019-03-20T23:32:50.943Z,5.40
2019-03-20T23:35:20.742Z,5.40
2019-03-20T23:37:50.638Z,5.50
2019-03-20T23:40:20.838Z,5.50
2019-03-20T23:42:50.634Z,5.50
2019-03-20T23:45:20.488Z,5.60
2019-03-20T23:47:59.968Z,5.60
2019-03-20T23:50:29.757Z,5.60
2019-03-20T23:52:59.551Z,5.60
2019-03-20T23:55:29.370Z,5.60
2019-03-20T23:57:59.735Z,5.60
